createdAt,value
2023-01-18T00:00:20.943Z,99179.09
2023-01-18T00:05:24.055Z,99199.91
2023-01-18T00:10:26.903Z,99168.94
2023-01-18T00:15:30.859Z,99198.19
2023-01-18T00:20:33.402Z,99193.94
2023-01-18T00:25:35.999Z,99178.63
2023-01-18T00:30:39.932Z,99182.31
2023-01-18T00:35:42.516Z,99188.09
2023-01-18T00:40:45.161Z,99176.84
2023-01-18T00:45:47.728Z,99188.81
2023-01-18T00:50:50.245Z,99171.09
2023-01-18T00:55:52.798Z,99178.59
2023-01-18T01:00:55.523Z,99159.09
2023-01-18T01:06:17.073Z,99135.94
2023-01-18T01:11:19.727Z,99168.44
2023-01-18T01:16:41.468Z,99161.75
2023-01-18T01:22:02.852Z,99155.59
2023-01-18T01:27:05.430Z,99170.34
2023-01-18T01:32:08.487Z,99177.13
2023-01-18T01:37:11.086Z,99182.34
2023-01-18T01:42:13.612Z,99147.94
2023-01-18T01:47:39.818Z,99179.19
2023-01-18T01:52:45.899Z,99140.69
2023-01-18T01:58:11.601Z,99163.09
2023-01-18T02:03:20.293Z,99146.28
2023-01-18T02:08:23.438Z,99144.31
2023-01-18T02:13:26.750Z,99149.19
2023-01-18T02:18:40.504Z,99154.41
2023-01-18T02:24:07.349Z,99152.78
2023-01-18T02:29:18.939Z,99149.25
2023-01-18T02:34:41.689Z,99147.50
2023-01-18T02:40:13.894Z,99134.72
2023-01-18T02:45:44.223Z,99146.56
2023-01-18T02:50:48.909Z,99150.03
2023-01-18T02:56:18.975Z,99155.88
2023-01-18T03:01:37.040Z,99158.16
2023-01-18T03:06:42.897Z,99177.44
2023-01-18T03:11:50.944Z,99174.91
2023-01-18T03:17:17.945Z,99186.06
2023-01-18T03:22:40.581Z,99178.19
2023-01-18T03:28:04.314Z,99200.28
2023-01-18T03:33:27.203Z,99214.00
2023-01-18T03:38:31.968Z,99205.59
2023-01-18T03:43:37.943Z,99196.69
2023-01-18T03:48:40.724Z,99218.31
2023-01-18T03:53:56.129Z,99219.94
2023-01-18T03:59:03.400Z,99217.38
2023-01-18T04:04:05.966Z,99218.13
2023-01-18T04:09:08.643Z,99188.19
2023-01-18T04:14:11.178Z,99224.94
2023-01-18T04:19:13.801Z,99223.94
2023-01-18T04:24:17.381Z,99217.09
2023-01-18T04:29:19.962Z,99221.50
2023-01-18T04:34:23.115Z,99226.72
2023-01-18T04:39:25.757Z,99218.22
2023-01-18T04:44:28.354Z,99200.09
2023-01-18T04:49:33.210Z,99227.72
2023-01-18T04:54:35.780Z,99233.63
2023-01-18T04:59:39.411Z,99244.56
2023-01-18T05:04:42.152Z,99216.13
2023-01-18T05:09:44.740Z,99242.78
2023-01-18T05:14:47.317Z,99259.13
2023-01-18T05:19:49.910Z,99228.97
2023-01-18T05:24:52.527Z,99277.84
2023-01-18T05:29:55.068Z,99288.13
2023-01-18T05:34:57.610Z,99284.72
2023-01-18T05:40:00.306Z,99276.22
2023-01-18T05:45:02.970Z,99276.16
2023-01-18T05:50:07.290Z,99274.53
2023-01-18T05:55:09.863Z,99284.66
2023-01-18T06:00:12.729Z,99276.13
2023-01-18T06:05:16.072Z,99290.75
2023-01-18T06:10:19.068Z,99298.66
2023-01-18T06:15:21.666Z,99312.38
2023-01-18T06:20:25.036Z,99320.88
2023-01-18T06:25:27.752Z,99322.59
2023-01-18T06:30:30.382Z,99304.53
2023-01-18T06:35:37.138Z,99319.91
2023-01-18T06:40:39.872Z,99323.22
2023-01-18T06:45:42.583Z,99315.56
2023-01-18T06:50:45.190Z,99349.16
2023-01-18T06:55:59.069Z,99319.94
2023-01-18T07:01:01.852Z,99347.41
2023-01-18T07:06:05.907Z,99349.88
2023-01-18T07:11:10.467Z,99345.72
2023-01-18T07:16:17.630Z,99361.03
2023-01-18T07:21:22.935Z,99373.13
2023-01-18T07:26:26.245Z,99361.44
2023-01-18T07:31:30.348Z,99333.94
2023-01-18T07:36:32.983Z,99362.59
2023-01-18T07:41:35.529Z,99322.03
2023-01-18T07:46:38.690Z,99347.03
2023-01-18T07:51:42.647Z,99324.84
2023-01-18T07:56:45.336Z,99319.09
2023-01-18T08:01:47.891Z,99330.25
2023-01-18T08:06:51.435Z,99343.16
2023-01-18T08:11:54.093Z,99312.16
2023-01-18T08:16:56.738Z,99333.13
2023-01-18T08:21:59.289Z,99338.44
2023-01-18T08:27:01.961Z,99353.16
2023-01-18T08:32:04.665Z,99371.13
2023-01-18T08:37:07.322Z,99342.72
2023-01-18T08:42:12.852Z,99357.13
2023-01-18T08:47:16.158Z,99352.81
2023-01-18T08:52:18.724Z,99345.94
2023-01-18T08:57:21.801Z,99358.09
2023-01-18T09:02:27.415Z,99359.75
2023-01-18T09:07:30.039Z,99353.03
2023-01-18T09:12:34.928Z,99353.25
2023-01-18T09:17:37.529Z,99361.66
2023-01-18T09:22:40.201Z,99390.13
2023-01-18T09:27:43.196Z,99394.41
2023-01-18T09:32:45.814Z,99394.34
2023-01-18T09:37:48.506Z,99382.59
2023-01-18T09:42:52.766Z,99388.78
2023-01-18T09:48:05.884Z,99373.19
2023-01-18T09:53:26.972Z,99376.69
2023-01-18T09:59:15.226Z,99393.91
2023-01-18T10:04:20.676Z,99389.81
2023-01-18T10:09:30.086Z,99392.88
2023-01-18T10:15:31.961Z,99387.09
2023-01-18T10:20:57.326Z,99389.56
2023-01-18T10:26:04.095Z,99385.19
2023-01-18T10:31:44.403Z,99375.59
2023-01-18T10:36:55.365Z,99336.63
2023-01-18T10:42:02.744Z,99355.34
2023-01-18T10:47:06.160Z,99390.63
2023-01-18T10:52:28.718Z,99387.56
2023-01-18T10:57:37.448Z,99392.44
2023-01-18T11:02:40.641Z,99352.16
2023-01-18T11:07:43.302Z,99347.94
2023-01-18T11:12:48.082Z,99370.53
2023-01-18T11:17:50.744Z,99370.72
2023-01-18T11:23:01.813Z,99363.03
2023-01-18T11:28:07.575Z,99357.78
2023-01-18T11:33:18.685Z,99357.75
2023-01-18T11:38:26.780Z,99350.03
2023-01-18T11:43:32.770Z,99330.16
2023-01-18T11:48:42.249Z,99339.63
2023-01-18T11:53:54.407Z,99340.94
2023-01-18T11:58:57.330Z,99299.16
2023-01-18T12:04:23.326Z,99336.88
2023-01-18T12:09:43.416Z,99331.59
2023-01-18T12:15:43.179Z,99340.22
2023-01-18T12:21:27.579Z,99358.84
2023-01-18T12:26:35.807Z,99363.91
2023-01-18T12:31:40.960Z,99367.47
2023-01-18T12:36:49.387Z,99365.72
2023-01-18T12:42:05.817Z,99371.59
2023-01-18T12:47:39.614Z,99360.44
2023-01-18T12:53:02.966Z,99363.06
2023-01-18T12:58:06.643Z,99358.75
2023-01-18T13:03:16.566Z,99362.25
2023-01-18T13:08:59.715Z,99362.88
2023-01-18T13:14:33.587Z,99365.47
2023-01-18T13:19:54.679Z,99358.44
2023-01-18T13:25:19.492Z,99353.31
2023-01-18T13:30:22.182Z,99333.50
2023-01-18T13:35:33.317Z,99323.06
2023-01-18T13:40:43.107Z,99358.44
2023-01-18T13:46:08.329Z,99338.16
2023-01-18T13:51:37.119Z,99344.00
2023-01-18T13:56:40.624Z,99318.19
2023-01-18T14:01:45.655Z,99342.00
2023-01-18T14:06:49.589Z,99327.50
2023-01-18T14:11:55.487Z,99314.00
2023-01-18T14:17:12.942Z,99300.34
2023-01-18T14:22:21.267Z,99322.44
2023-01-18T14:27:28.517Z,99296.78
2023-01-18T14:32:37.827Z,99311.34
2023-01-18T14:37:40.354Z,99320.63
2023-01-18T14:42:51.069Z,99330.09
2023-01-18T14:47:59.445Z,99354.81
2023-01-18T14:53:02.245Z,99328.56
2023-01-18T14:58:14.774Z,99335.50
2023-01-18T15:03:26.434Z,99337.38
2023-01-18T15:08:31.450Z,99327.97
2023-01-18T15:13:47.467Z,99318.34
2023-01-18T15:18:52.197Z,99296.13
2023-01-18T15:24:02.708Z,99310.72
2023-01-18T15:29:13.651Z,99315.03
2023-01-18T15:34:18.830Z,99325.25
2023-01-18T15:39:21.591Z,99295.94
2023-01-18T15:44:40.735Z,99336.34
2023-01-18T15:49:51.999Z,99326.31
2023-01-18T15:54:55.450Z,99312.53
2023-01-18T16:00:01.900Z,99319.56
2023-01-18T16:05:20.433Z,99309.91
2023-01-18T16:10:33.114Z,99327.69
2023-01-18T16:15:35.801Z,99315.53
2023-01-18T16:20:38.854Z,99334.41
2023-01-18T16:25:41.807Z,99324.97
2023-01-18T16:30:50.286Z,99329.25
2023-01-18T16:35:53.127Z,99314.63
2023-01-18T16:40:55.695Z,99297.19
2023-01-18T16:45:59.121Z,99338.16
2023-01-18T16:51:01.970Z,99336.34
2023-01-18T16:56:04.656Z,99297.81
2023-01-18T17:01:12.799Z,99303.84
2023-01-18T17:06:22.855Z,99320.56
2023-01-18T17:11:25.615Z,99316.25
2023-01-18T17:16:28.273Z,99314.81
2023-01-18T17:21:30.971Z,99318.97
2023-01-18T17:26:33.608Z,99309.53
2023-01-18T17:31:41.661Z,99342.66
2023-01-18T17:36:47.399Z,99318.63
2023-01-18T17:41:50.130Z,99321.69
2023-01-18T17:46:52.876Z,99318.38
2023-01-18T17:51:55.558Z,99308.47
2023-01-18T17:56:58.151Z,99320.94
2023-01-18T18:02:00.776Z,99339.56
2023-01-18T18:07:03.786Z,99322.66
2023-01-18T18:12:10.473Z,99308.84
2023-01-18T18:17:13.135Z,99268.53
2023-01-18T18:22:15.975Z,99277.38
2023-01-18T18:27:19.081Z,99284.44
2023-01-18T18:32:24.499Z,99287.91
2023-01-18T18:37:27.084Z,99288.75
2023-01-18T18:42:29.683Z,99280.94
2023-01-18T18:47:32.581Z,99286.00
2023-01-18T18:52:35.412Z,99295.59
2023-01-18T18:57:37.984Z,99282.00
2023-01-18T19:02:40.552Z,99276.66
2023-01-18T19:07:43.580Z,99219.22
2023-01-18T19:12:46.117Z,99270.09
2023-01-18T19:17:50.585Z,99269.22
2023-01-18T19:22:53.343Z,99263.81
2023-01-18T19:27:55.910Z,99258.06
2023-01-18T19:33:00.031Z,99266.56
2023-01-18T19:38:03.036Z,99243.66
2023-01-18T19:43:05.755Z,99266.97
2023-01-18T19:48:08.437Z,99251.56
2023-01-18T19:53:11.139Z,99249.81
2023-01-18T19:58:13.713Z,99219.00
2023-01-18T20:03:16.308Z,99239.84
2023-01-18T20:08:19.035Z,99213.91
2023-01-18T20:13:21.588Z,99240.56
2023-01-18T20:18:24.180Z,99237.13
2023-01-18T20:23:26.718Z,99208.13
2023-01-18T20:28:29.474Z,99222.81
2023-01-18T20:33:33.644Z,99222.03
2023-01-18T20:38:36.244Z,99232.13
2023-01-18T20:43:39.020Z,99190.09
2023-01-18T20:48:41.615Z,99228.06
2023-01-18T20:53:44.234Z,99194.91
2023-01-18T20:58:46.762Z,99219.66
2023-01-18T21:03:54.573Z,99215.63
2023-01-18T21:08:58.599Z,99188.97
2023-01-18T21:14:01.380Z,99201.22
2023-01-18T21:19:04.581Z,99193.50
2023-01-18T21:24:07.426Z,99179.75
2023-01-18T21:29:10.011Z,99194.38
2023-01-18T21:34:12.715Z,99185.84
2023-01-18T21:39:18.519Z,99156.00
2023-01-18T21:44:39.521Z,99187.75
2023-01-18T21:50:17.851Z,99164.72
2023-01-18T21:55:21.854Z,99170.81
2023-01-18T22:00:24.448Z,99159.81
2023-01-18T22:05:27.077Z,99151.31
2023-01-18T22:10:29.858Z,99147.84
2023-01-18T22:15:32.546Z,99154.06
2023-01-18T22:20:35.394Z,99173.72
2023-01-18T22:25:38.053Z,99172.06
2023-01-18T22:30:40.604Z,99162.59
2023-01-18T22:35:43.564Z,99156.59
2023-01-18T22:40:46.158Z,99156.50
2023-01-18T22:45:55.442Z,99151.41
2023-01-18T22:51:02.686Z,99141.16
2023-01-18T22:56:08.665Z,99158.38
2023-01-18T23:01:26.762Z,99152.34
2023-01-18T23:06:42.287Z,99144.53
2023-01-18T23:11:45.778Z,99137.03
2023-01-18T23:17:07.121Z,99114.16
2023-01-18T23:22:10.660Z,99102.28
2023-01-18T23:27:13.179Z,99117.47
2023-01-18T23:32:15.756Z,99138.91
2023-01-18T23:37:18.332Z,99131.41
2023-01-18T23:42:40.051Z,99118.69
2023-01-18T23:48:01.843Z,99112.59
2023-01-18T23:53:23.269Z,99092.03
2023-01-18T23:58:26.087Z,99086.91
